createdAt,value
2018-05-06T00:02:14.107Z,12.11
2018-05-06T00:04:40.957Z,12.06
2018-05-06T00:07:07.938Z,12.06
2018-05-06T00:09:35.531Z,12.06
2018-05-06T00:12:02.407Z,12.07
2018-05-06T00:14:29.308Z,12.05
2018-05-06T00:16:56.167Z,12.12
2018-05-06T00:19:23.572Z,12.02
2018-05-06T00:21:50.425Z,12.01
2018-05-06T00:24:17.260Z,11.96
2018-05-06T00:26:44.155Z,12.02
2018-05-06T00:29:10.993Z,11.98
2018-05-06T00:31:37.892Z,12.03
2018-05-06T00:34:05.516Z,11.96
2018-05-06T00:36:32.415Z,12.01
2018-05-06T00:38:59.360Z,12.03
2018-05-06T00:41:26.227Z,12.01
2018-05-06T00:43:54.044Z,12.10
2018-05-06T00:46:20.924Z,12.00
2018-05-06T00:48:48.512Z,12.01
2018-05-06T00:51:15.417Z,11.83
2018-05-06T00:53:42.271Z,11.81
2018-05-06T00:56:09.153Z,11.80
2018-05-06T00:58:36.053Z,11.70
2018-05-06T01:01:02.950Z,11.69
2018-05-06T01:03:29.900Z,11.73
2018-05-06T01:05:56.829Z,11.66
2018-05-06T01:08:23.719Z,11.56
2018-05-06T01:10:50.669Z,11.52
2018-05-06T01:13:17.565Z,11.57
2018-05-06T01:15:44.411Z,11.48
2018-05-06T01:18:11.301Z,11.44
2018-05-06T01:20:38.924Z,11.44
2018-05-06T01:23:05.768Z,11.41
2018-05-06T01:25:32.663Z,11.45
2018-05-06T01:27:59.591Z,11.34
2018-05-06T01:30:26.436Z,11.33
2018-05-06T01:32:53.596Z,11.49
2018-05-06T01:35:20.496Z,11.35
2018-05-06T01:37:47.339Z,11.32
2018-05-06T01:40:14.542Z,11.34
2018-05-06T01:42:41.384Z,11.34
2018-05-06T01:45:08.241Z,11.28
2018-05-06T01:47:35.133Z,11.17
2018-05-06T01:50:02.272Z,11.18
2018-05-06T01:52:29.118Z,11.12
2018-05-06T01:54:56.009Z,11.00
2018-05-06T01:57:23.689Z,10.92
2018-05-06T01:59:51.371Z,10.79
2018-05-06T02:02:18.951Z,10.87
2018-05-06T02:04:45.897Z,10.87
2018-05-06T02:07:12.765Z,10.88
2018-05-06T02:09:40.428Z,10.87
2018-05-06T02:12:07.292Z,10.80
2018-05-06T02:14:34.148Z,10.79
2018-05-06T02:17:01.052Z,10.73
2018-05-06T02:19:27.895Z,10.75
2018-05-06T02:21:54.832Z,10.77
2018-05-06T02:24:21.667Z,10.67
2018-05-06T02:26:49.252Z,10.68
2018-05-06T02:29:16.152Z,10.67
2018-05-06T02:31:43.007Z,10.53
2018-05-06T02:34:10.639Z,10.61
2018-05-06T02:36:37.661Z,10.56
2018-05-06T02:39:04.596Z,10.51
2018-05-06T02:41:31.525Z,10.34
2018-05-06T02:43:59.179Z,10.21
2018-05-06T02:46:26.774Z,10.37
2018-05-06T02:48:53.660Z,10.31
2018-05-06T02:51:20.505Z,10.30
2018-05-06T02:53:47.364Z,10.22
2018-05-06T02:56:14.253Z,10.30
2018-05-06T02:58:41.152Z,10.18
2018-05-06T03:01:08.059Z,10.01
2018-05-06T03:03:35.005Z,9.97
2018-05-06T03:06:01.900Z,9.75
2018-05-06T03:08:29.533Z,9.95
2018-05-06T03:10:56.392Z,10.03
2018-05-06T03:13:23.230Z,9.85
2018-05-06T03:15:50.122Z,9.80
2018-05-06T03:18:16.972Z,9.87
2018-05-06T03:20:43.806Z,9.73
2018-05-06T03:23:11.004Z,9.71
2018-05-06T03:25:37.894Z,9.47
2018-05-06T03:28:04.755Z,9.50
2018-05-06T03:30:31.800Z,9.50
2018-05-06T03:32:58.676Z,9.37
2018-05-06T03:35:25.524Z,9.43
2018-05-06T03:37:53.218Z,9.34
2018-05-06T03:40:20.899Z,9.27
2018-05-06T03:42:48.619Z,9.33
2018-05-06T03:45:15.467Z,9.32
2018-05-06T03:47:42.360Z,9.42
2018-05-06T03:50:09.958Z,9.11
2018-05-06T03:52:36.861Z,9.28
2018-05-06T03:55:04.509Z,9.28
2018-05-06T03:57:49.698Z,9.06
2018-05-06T04:00:35.800Z,8.96
2018-05-06T04:03:02.716Z,8.90
2018-05-06T04:05:29.565Z,8.88
2018-05-06T04:07:56.420Z,8.98
2018-05-06T04:10:23.330Z,8.98
2018-05-06T04:12:50.182Z,9.13
2018-05-06T04:15:17.813Z,9.02
2018-05-06T04:17:44.715Z,8.98
2018-05-06T04:20:12.311Z,8.65
2018-05-06T04:22:39.167Z,8.68
2018-05-06T04:25:06.048Z,8.75
2018-05-06T04:27:33.246Z,8.79
2018-05-06T04:30:00.196Z,8.92
2018-05-06T04:32:27.100Z,8.95
2018-05-06T04:34:53.994Z,9.26
2018-05-06T04:37:20.859Z,9.39
2018-05-06T04:39:47.770Z,9.45
2018-05-06T04:42:14.656Z,9.55
2018-05-06T04:44:41.499Z,9.74
2018-05-06T04:47:08.396Z,9.87
2018-05-06T04:49:35.235Z,9.99
2018-05-06T04:52:02.887Z,10.08
2018-05-06T04:54:30.541Z,10.24
2018-05-06T04:56:57.388Z,10.34
2018-05-06T04:59:24.366Z,10.45
2018-05-06T05:01:51.229Z,10.32
2018-05-06T05:04:18.189Z,10.71
2018-05-06T05:06:45.096Z,10.73
2018-05-06T05:09:12.756Z,10.81
2018-05-06T05:11:40.340Z,10.86
2018-05-06T05:14:07.184Z,11.48
2018-05-06T05:16:34.086Z,12.22
2018-05-06T05:19:00.946Z,12.43
2018-05-06T05:21:28.605Z,13.18
2018-05-06T05:23:56.201Z,13.68
2018-05-06T05:26:23.047Z,14.05
2018-05-06T05:28:49.991Z,13.88
2018-05-06T05:31:16.888Z,14.43
2018-05-06T05:33:43.779Z,14.31
2018-05-06T05:36:10.673Z,13.53
2018-05-06T05:38:37.650Z,13.60
2018-05-06T05:41:05.276Z,14.43
2018-05-06T05:43:32.121Z,14.72
2018-05-06T05:45:59.032Z,14.93
2018-05-06T05:48:25.885Z,14.27
2018-05-06T05:50:52.729Z,14.07
2018-05-06T05:53:19.619Z,14.54
2018-05-06T05:55:46.552Z,15.35
2018-05-06T05:58:13.479Z,14.94
2018-05-06T06:00:40.335Z,14.77
2018-05-06T06:03:07.212Z,15.45
2018-05-06T06:05:34.101Z,15.66
2018-05-06T06:08:01.043Z,14.89
2018-05-06T06:10:27.958Z,14.96
2018-05-06T06:12:54.851Z,15.78
2018-05-06T06:15:21.702Z,15.84
2018-05-06T06:17:48.625Z,15.98
2018-05-06T06:20:15.556Z,16.10
2018-05-06T06:22:42.395Z,16.57
2018-05-06T06:25:10.042Z,16.61
2018-05-06T06:27:37.672Z,16.58
2018-05-06T06:30:04.899Z,16.49
2018-05-06T06:32:31.757Z,16.79
2018-05-06T06:34:58.608Z,15.56
2018-05-06T06:37:25.500Z,16.91
2018-05-06T06:39:53.096Z,17.39
2018-05-06T06:42:19.986Z,16.06
2018-05-06T06:44:47.633Z,17.31
2018-05-06T06:47:14.484Z,16.81
2018-05-06T06:49:41.369Z,17.05
2018-05-06T06:52:08.234Z,17.64
2018-05-06T06:54:35.111Z,18.23
2018-05-06T06:57:02.179Z,17.30
2018-05-06T06:59:29.029Z,17.05
2018-05-06T07:01:55.884Z,18.39
2018-05-06T07:04:22.825Z,16.86
2018-05-06T07:06:49.682Z,16.68
2018-05-06T07:09:17.277Z,17.24
2018-05-06T07:11:44.209Z,17.73
2018-05-06T07:14:11.062Z,18.96
2018-05-06T07:16:37.943Z,18.14
2018-05-06T07:19:04.789Z,18.30
2018-05-06T07:21:31.663Z,17.96
2018-05-06T07:23:59.317Z,16.81
2018-05-06T07:26:26.908Z,18.54
2018-05-06T07:28:53.800Z,16.94
2018-05-06T07:31:20.683Z,17.09
2018-05-06T07:33:47.553Z,18.60
2018-05-06T07:36:14.505Z,17.35
2018-05-06T07:38:41.377Z,18.83
2018-05-06T07:41:08.300Z,19.25
2018-05-06T07:43:35.251Z,17.57
2018-05-06T07:46:02.091Z,18.77
2018-05-06T07:48:29.012Z,17.88
2018-05-06T07:50:56.518Z,19.69
2018-05-06T07:53:23.640Z,19.08
2018-05-06T07:55:50.483Z,19.79
2018-05-06T07:58:17.319Z,19.04
2018-05-06T08:00:44.592Z,19.25
2018-05-06T08:03:11.423Z,20.25
2018-05-06T08:05:38.277Z,20.85
2018-05-06T08:08:05.908Z,20.79
2018-05-06T08:10:33.499Z,19.69
2018-05-06T08:13:00.422Z,20.15
2018-05-06T08:15:27.289Z,19.32
2018-05-06T08:17:54.204Z,20.06
2018-05-06T08:20:21.880Z,20.19
2018-05-06T08:22:48.732Z,20.90
2018-05-06T08:25:15.582Z,21.49
2018-05-06T08:27:42.560Z,20.98
2018-05-06T08:30:09.428Z,21.82
2018-05-06T08:32:36.340Z,20.41
2018-05-06T08:35:03.982Z,19.94
2018-05-06T08:37:30.878Z,20.90
2018-05-06T08:39:57.744Z,21.44
2018-05-06T08:42:25.334Z,21.14
2018-05-06T08:44:52.981Z,20.88
2018-05-06T08:47:20.047Z,21.72
2018-05-06T08:49:46.987Z,22.47
2018-05-06T08:52:13.975Z,20.97
2018-05-06T08:54:40.836Z,22.32
2018-05-06T08:57:07.736Z,22.79
2018-05-06T08:59:34.660Z,21.22
2018-05-06T09:02:01.895Z,21.06
2018-05-06T09:04:28.853Z,21.74
2018-05-06T09:06:55.714Z,22.08
2018-05-06T09:09:22.601Z,22.69
2018-05-06T09:11:49.459Z,22.49
2018-05-06T09:14:16.295Z,22.02
2018-05-06T09:16:43.335Z,21.26
2018-05-06T09:19:10.305Z,21.98
2018-05-06T09:21:37.239Z,22.22
2018-05-06T09:24:04.125Z,22.80
2018-05-06T09:26:31.017Z,22.96
2018-05-06T09:28:57.897Z,21.66
2018-05-06T09:31:25.523Z,21.52
2018-05-06T09:33:52.457Z,22.05
2018-05-06T09:36:19.340Z,22.35
2018-05-06T09:38:46.213Z,22.38
2018-05-06T09:41:13.096Z,22.83
2018-05-06T09:43:39.925Z,22.80
2018-05-06T09:46:06.812Z,21.96
2018-05-06T09:48:33.664Z,22.01
2018-05-06T09:51:00.491Z,22.49
2018-05-06T09:53:27.373Z,21.92
2018-05-06T09:55:54.955Z,21.50
2018-05-06T09:58:21.840Z,21.74
2018-05-06T10:00:48.688Z,21.61
2018-05-06T10:03:15.675Z,21.93
2018-05-06T10:05:43.244Z,21.49
2018-05-06T10:08:10.140Z,22.30
2018-05-06T10:10:37.017Z,22.26
2018-05-06T10:13:03.843Z,22.15
2018-05-06T10:15:30.688Z,22.42
2018-05-06T10:17:57.555Z,22.34
2018-05-06T10:20:25.129Z,22.37
2018-05-06T10:22:52.325Z,22.31
2018-05-06T10:25:19.166Z,22.49
2018-05-06T10:27:46.045Z,22.63
2018-05-06T10:30:13.670Z,22.46
2018-05-06T10:32:40.937Z,22.44
2018-05-06T10:35:07.792Z,22.88
2018-05-06T10:37:34.628Z,22.24
2018-05-06T10:40:01.512Z,22.44
2018-05-06T10:42:29.144Z,22.52
2018-05-06T10:44:56.005Z,22.87
2018-05-06T10:47:23.572Z,22.56
2018-05-06T10:49:50.436Z,22.57
2018-05-06T10:52:17.346Z,22.73
2018-05-06T10:54:44.194Z,22.73
2018-05-06T10:57:11.349Z,22.56
2018-05-06T10:59:38.945Z,22.97
2018-05-06T11:02:05.821Z,23.29
2018-05-06T11:04:33.497Z,23.10
2018-05-06T11:07:01.120Z,22.98
2018-05-06T11:09:27.967Z,22.83
2018-05-06T11:11:54.847Z,22.59
2018-05-06T11:14:21.689Z,23.10
2018-05-06T11:16:48.832Z,22.81
2018-05-06T11:19:15.751Z,22.78
2018-05-06T11:21:42.579Z,22.81
2018-05-06T11:24:09.480Z,22.80
2018-05-06T11:26:36.343Z,23.16
2018-05-06T11:29:03.255Z,23.17
2018-05-06T11:31:30.169Z,23.21
2018-05-06T11:33:57.080Z,23.19
2018-05-06T11:36:24.661Z,22.90
2018-05-06T11:38:52.235Z,23.41
2018-05-06T11:41:19.143Z,23.29
2018-05-06T11:43:46.049Z,23.26
2018-05-06T11:46:13.609Z,23.03
2018-05-06T11:48:40.776Z,23.37
2018-05-06T11:51:07.615Z,23.47
2018-05-06T11:53:34.443Z,23.51
2018-05-06T11:56:01.716Z,23.56
2018-05-06T11:58:28.557Z,23.57
2018-05-06T12:00:55.392Z,23.50
2018-05-06T12:03:22.281Z,23.73
2018-05-06T12:05:49.131Z,23.77
2018-05-06T12:08:16.766Z,23.62
2018-05-06T12:10:43.605Z,24.02
2018-05-06T12:13:10.444Z,23.83
2018-05-06T12:15:37.598Z,23.98
2018-05-06T12:18:04.445Z,24.20
2018-05-06T12:20:31.285Z,24.41
2018-05-06T12:22:58.214Z,24.24
2018-05-06T12:25:25.052Z,23.97
2018-05-06T12:27:51.897Z,23.98
2018-05-06T12:30:18.768Z,24.22
2018-05-06T12:32:45.646Z,24.26
2018-05-06T12:35:12.525Z,23.99
2018-05-06T12:37:39.362Z,24.18
2018-05-06T12:40:06.248Z,24.21
2018-05-06T12:42:33.429Z,24.38
2018-05-06T12:45:01.010Z,24.19
2018-05-06T12:47:27.909Z,24.74
2018-05-06T12:49:54.805Z,24.94
2018-05-06T12:52:21.656Z,24.87
2018-05-06T12:54:48.844Z,24.41
2018-05-06T12:57:15.691Z,24.23
2018-05-06T12:59:42.525Z,24.56
2018-05-06T13:02:09.440Z,24.52
2018-05-06T13:04:36.330Z,24.68
2018-05-06T13:07:03.265Z,24.43
2018-05-06T13:09:30.152Z,24.53
2018-05-06T13:11:57.776Z,24.51
2018-05-06T13:14:24.661Z,24.57
2018-05-06T13:16:52.251Z,24.48
2018-05-06T13:19:19.136Z,24.67
2018-05-06T13:21:46.065Z,24.99
2018-05-06T13:24:12.931Z,24.95
2018-05-06T13:26:39.813Z,24.83
2018-05-06T13:29:06.717Z,24.75
2018-05-06T13:31:33.616Z,24.93
2018-05-06T13:34:00.452Z,24.89
2018-05-06T13:36:27.347Z,24.84
2018-05-06T13:38:54.331Z,24.79
2018-05-06T13:41:21.950Z,25.14
2018-05-06T13:43:48.877Z,25.14
2018-05-06T13:46:16.452Z,24.71
2018-05-06T13:48:43.349Z,24.90
2018-05-06T13:51:10.972Z,24.85
2018-05-06T13:53:38.160Z,25.08
2018-05-06T13:56:05.036Z,25.20
2018-05-06T13:58:31.877Z,25.34
2018-05-06T14:00:58.775Z,25.35
2018-05-06T14:03:25.607Z,25.26
2018-05-06T14:05:52.454Z,25.24
2018-05-06T14:08:19.332Z,25.58
2018-05-06T14:10:46.909Z,25.57
2018-05-06T14:13:13.812Z,25.90
2018-05-06T14:15:40.644Z,25.57
2018-05-06T14:18:08.256Z,25.55
2018-05-06T14:20:35.227Z,25.54
2018-05-06T14:23:02.119Z,25.45
2018-05-06T14:25:29.017Z,25.54
2018-05-06T14:27:55.853Z,25.50
2018-05-06T14:30:22.743Z,25.70
2018-05-06T14:32:49.588Z,25.47
2018-05-06T14:35:16.493Z,25.24
2018-05-06T14:37:43.418Z,25.56
2018-05-06T14:40:10.273Z,25.60
2018-05-06T14:42:37.159Z,25.58
2018-05-06T14:45:04.052Z,25.81
2018-05-06T14:47:49.348Z,25.66
2018-05-06T14:50:16.244Z,25.70
2018-05-06T14:52:43.101Z,25.86
2018-05-06T14:55:10.683Z,25.71
2018-05-06T14:57:37.588Z,25.36
2018-05-06T15:00:04.477Z,25.43
2018-05-06T15:02:31.364Z,25.57
2018-05-06T15:04:58.292Z,25.85
2018-05-06T15:07:25.233Z,25.70
2018-05-06T15:09:52.356Z,25.69
2018-05-06T15:12:19.249Z,25.62
2018-05-06T15:14:52.066Z,25.73
2018-05-06T15:17:19.723Z,25.58
2018-05-06T15:19:46.843Z,25.46
2018-05-06T15:22:13.933Z,25.87
2018-05-06T15:24:41.664Z,25.68
2018-05-06T15:27:08.988Z,25.78
2018-05-06T15:29:35.877Z,25.54
2018-05-06T15:32:02.774Z,25.41
2018-05-06T15:34:29.699Z,25.33
2018-05-06T15:36:56.579Z,25.55
2018-05-06T15:39:23.465Z,25.79
2018-05-06T15:41:50.312Z,25.54
2018-05-06T15:44:17.979Z,25.48
2018-05-06T15:46:45.610Z,25.37
2018-05-06T15:49:13.311Z,25.58
2018-05-06T15:51:41.011Z,25.68
2018-05-06T15:54:07.986Z,25.75
2018-05-06T15:56:35.173Z,25.70
2018-05-06T15:59:02.845Z,25.68
2018-05-06T16:01:30.455Z,25.59
2018-05-06T16:04:14.643Z,25.36
2018-05-06T16:06:41.541Z,25.15
2018-05-06T16:09:08.480Z,25.10
2018-05-06T16:11:35.335Z,25.36
2018-05-06T16:14:02.270Z,25.40
2018-05-06T16:16:29.247Z,25.31
2018-05-06T16:18:56.117Z,25.31
2018-05-06T16:21:24.315Z,25.26
2018-05-06T16:23:51.179Z,25.36
2018-05-06T16:26:18.078Z,25.16
2018-05-06T16:28:45.670Z,25.14
2018-05-06T16:31:12.564Z,25.13
2018-05-06T16:33:39.395Z,25.19
2018-05-06T16:36:06.239Z,25.24
2018-05-06T16:38:33.151Z,25.10
2018-05-06T16:41:00.022Z,25.00
2018-05-06T16:43:26.924Z,25.05
2018-05-06T16:45:54.552Z,24.81
2018-05-06T16:48:21.440Z,24.85
2018-05-06T16:50:49.050Z,24.80
2018-05-06T16:53:15.899Z,24.74
2018-05-06T16:55:42.775Z,24.82
2018-05-06T16:58:10.390Z,24.63
2018-05-06T17:00:37.329Z,24.60
2018-05-06T17:03:04.213Z,24.52
2018-05-06T17:05:31.191Z,24.41
2018-05-06T17:07:58.289Z,24.33
2018-05-06T17:10:25.157Z,24.43
2018-05-06T17:12:52.016Z,24.26
2018-05-06T17:15:19.655Z,24.41
2018-05-06T17:17:46.521Z,24.11
2018-05-06T17:20:14.280Z,24.07
2018-05-06T17:22:41.123Z,24.12
2018-05-06T17:25:08.014Z,23.84
2018-05-06T17:27:34.999Z,23.95
2018-05-06T17:30:01.915Z,23.93
2018-05-06T17:32:28.845Z,23.76
2018-05-06T17:34:55.707Z,23.76
2018-05-06T17:37:22.623Z,23.61
2018-05-06T17:39:49.545Z,23.57
2018-05-06T17:42:16.386Z,23.51
2018-05-06T17:44:43.319Z,23.54
2018-05-06T17:47:10.236Z,23.55
2018-05-06T17:49:37.221Z,23.49
2018-05-06T17:52:04.114Z,23.24
2018-05-06T17:54:31.086Z,23.14
2018-05-06T17:56:57.956Z,23.13
2018-05-06T17:59:24.870Z,23.22
2018-05-06T18:01:51.722Z,23.01
2018-05-06T18:04:19.404Z,22.97
2018-05-06T18:06:46.293Z,22.87
2018-05-06T18:09:13.140Z,22.80
2018-05-06T18:11:40.032Z,22.62
2018-05-06T18:14:06.946Z,22.58
2018-05-06T18:16:33.797Z,22.61
2018-05-06T18:19:00.684Z,22.52
2018-05-06T18:21:28.360Z,22.47
2018-05-06T18:23:56.035Z,22.28
2018-05-06T18:26:23.684Z,22.25
2018-05-06T18:28:51.723Z,22.20
2018-05-06T18:31:18.596Z,22.15
2018-05-06T18:33:46.206Z,21.94
2018-05-06T18:36:13.113Z,21.87
2018-05-06T18:38:40.703Z,21.71
2018-05-06T18:41:07.833Z,21.67
2018-05-06T18:43:35.429Z,21.73
2018-05-06T18:46:02.295Z,21.69
2018-05-06T18:48:29.215Z,21.54
2018-05-06T18:50:56.148Z,21.46
2018-05-06T18:53:23.038Z,21.26
2018-05-06T18:55:49.937Z,21.20
2018-05-06T18:58:16.816Z,21.17
2018-05-06T19:00:43.671Z,21.11
2018-05-06T19:03:10.579Z,21.02
2018-05-06T19:05:38.230Z,20.87
2018-05-06T19:08:05.148Z,20.82
2018-05-06T19:10:32.737Z,20.73
2018-05-06T19:12:59.637Z,20.57
2018-05-06T19:15:26.531Z,20.46
2018-05-06T19:17:53.392Z,20.36
2018-05-06T19:20:20.298Z,20.33
2018-05-06T19:22:47.886Z,20.38
2018-05-06T19:25:14.737Z,20.31
2018-05-06T19:27:41.641Z,20.18
2018-05-06T19:30:08.485Z,20.09
2018-05-06T19:32:35.416Z,20.00
2018-05-06T19:35:02.273Z,19.93
2018-05-06T19:37:29.498Z,19.92
2018-05-06T19:39:56.339Z,19.76
2018-05-06T19:42:23.182Z,19.72
2018-05-06T19:44:50.065Z,19.61
2018-05-06T19:47:17.766Z,19.50
2018-05-06T19:49:44.701Z,19.58
2018-05-06T19:52:11.561Z,19.42
2018-05-06T19:54:38.448Z,19.21
2018-05-06T19:57:05.547Z,19.08
2018-05-06T19:59:32.448Z,18.99
2018-05-06T20:01:59.292Z,18.99
2018-05-06T20:04:26.139Z,18.79
2018-05-06T20:06:53.043Z,18.43
2018-05-06T20:09:20.637Z,18.32
2018-05-06T20:11:47.479Z,18.33
2018-05-06T20:14:14.420Z,18.33
2018-05-06T20:16:41.332Z,18.07
2018-05-06T20:19:08.209Z,17.93
2018-05-06T20:21:35.124Z,18.00
2018-05-06T20:24:01.983Z,17.68
2018-05-06T20:26:28.891Z,17.62
2018-05-06T20:28:56.505Z,17.68
2018-05-06T20:31:23.568Z,17.71
2018-05-06T20:33:50.585Z,17.70
2018-05-06T20:36:17.432Z,17.52
2018-05-06T20:38:44.375Z,17.51
2018-05-06T20:41:11.233Z,17.51
2018-05-06T20:43:38.121Z,17.46
2018-05-06T20:46:05.719Z,17.35
2018-05-06T20:48:32.645Z,17.38
2018-05-06T20:50:59.505Z,17.45
2018-05-06T20:53:26.351Z,17.45
2018-05-06T20:55:53.232Z,17.39
2018-05-06T20:58:20.432Z,17.34
2018-05-06T21:00:47.376Z,17.37
2018-05-06T21:03:14.216Z,17.36
2018-05-06T21:05:41.178Z,17.32
2018-05-06T21:08:08.033Z,17.33
2018-05-06T21:10:35.372Z,17.23
2018-05-06T21:13:02.250Z,17.19
2018-05-06T21:15:29.142Z,17.18
2018-05-06T21:17:56.731Z,17.16
2018-05-06T21:20:23.575Z,17.14
2018-05-06T21:22:50.474Z,17.14
2018-05-06T21:25:17.358Z,17.12
2018-05-06T21:27:44.294Z,17.04
2018-05-06T21:30:11.147Z,16.99
2018-05-06T21:32:37.995Z,16.98
2018-05-06T21:35:04.881Z,16.91
2018-05-06T21:37:31.787Z,16.82
2018-05-06T21:39:58.716Z,16.77
2018-05-06T21:42:26.631Z,16.73
2018-05-06T21:44:53.630Z,16.65
2018-05-06T21:47:20.437Z,16.64
2018-05-06T21:49:47.617Z,16.61
2018-05-06T21:52:14.455Z,16.51
2018-05-06T21:54:42.048Z,16.47
2018-05-06T21:57:08.943Z,16.44
2018-05-06T21:59:35.804Z,16.44
2018-05-06T22:02:03.492Z,16.42
2018-05-06T22:04:31.124Z,16.40
2018-05-06T22:06:57.955Z,16.40
2018-05-06T22:09:24.804Z,16.36
2018-05-06T22:11:51.688Z,16.26
2018-05-06T22:14:18.552Z,16.25
2018-05-06T22:16:45.441Z,16.26
2018-05-06T22:19:12.301Z,16.20
2018-05-06T22:21:39.184Z,16.16
2018-05-06T22:24:06.064Z,16.05
2018-05-06T22:26:32.993Z,16.04
2018-05-06T22:28:59.873Z,16.04
2018-05-06T22:31:26.720Z,16.01
2018-05-06T22:33:53.610Z,15.95
2018-05-06T22:36:20.470Z,15.93
2018-05-06T22:38:47.368Z,15.90
2018-05-06T22:41:14.955Z,15.73
2018-05-06T22:43:41.862Z,15.76
2018-05-06T22:46:08.775Z,15.78
2018-05-06T22:48:35.664Z,15.86
2018-05-06T22:51:03.269Z,15.84
2018-05-06T22:53:30.198Z,15.72
2018-05-06T22:55:57.065Z,15.70
2018-05-06T22:58:24.904Z,15.67
2018-05-06T23:00:51.843Z,15.74
2018-05-06T23:03:19.423Z,15.59
2018-05-06T23:05:46.396Z,15.44
2018-05-06T23:08:13.248Z,15.48
2018-05-06T23:10:40.144Z,15.25
2018-05-06T23:13:07.068Z,15.27
2018-05-06T23:15:33.941Z,15.29
2018-05-06T23:18:00.784Z,15.22
2018-05-06T23:20:27.819Z,15.22
2018-05-06T23:22:55.413Z,15.19
2018-05-06T23:25:22.341Z,15.14
2018-05-06T23:27:49.184Z,14.99
2018-05-06T23:30:16.387Z,15.03
2018-05-06T23:32:43.238Z,15.02
2018-05-06T23:35:10.080Z,15.04
2018-05-06T23:37:36.985Z,15.03
2018-05-06T23:40:04.634Z,14.99
2018-05-06T23:42:31.721Z,14.91
2018-05-06T23:44:58.613Z,14.90
2018-05-06T23:47:26.244Z,14.86
2018-05-06T23:49:57.711Z,14.90
2018-05-06T23:52:24.609Z,14.76
2018-05-06T23:54:51.527Z,14.69
2018-05-06T23:57:19.221Z,14.72
2018-05-06T23:59:46.084Z,14.75
